Time;durP1;ratioP1;P1;durP2;ratioP2;P2;SDS_P1;SDS_P2;PMS_P1;PMS_P2;Temp;Humidity;BMP_temperature;BMP_pressure;BME280_temperature;BME280_humidity;BME280_pressure;Samples;Min_cycle;Max_cycle;Signal;HPM_P1;HPM_P2
2023/06/22 00:02:04;;;;;;;12.13;5.83;;;;;;;23.78;54.57;100103.97;4996483;28;20030;-83
2023/06/22 00:04:30;;;;;;;14.30;6.82;;;;;;;23.83;54.39;100106.53;4995767;28;20045;-85
2023/06/22 00:06:55;;;;;;;8.70;5.60;;;;;;;23.74;54.99;100106.66;4995777;28;20222;-83
2023/06/22 00:09:20;;;;;;;11.13;6.70;;;;;;;23.68;54.81;100119.16;4995426;28;20023;-84
2023/06/22 00:11:45;;;;;;;14.13;6.73;;;;;;;23.74;54.86;100111.38;4996009;28;20103;-84
2023/06/22 00:14:11;;;;;;;11.23;6.10;;;;;;;23.72;55.35;100110.94;4997172;28;20053;-84
2023/06/22 00:16:36;;;;;;;10.47;6.03;;;;;;;23.70;55.40;100104.91;4998761;28;20030;-83
2023/06/22 00:19:02;;;;;;;9.20;5.50;;;;;;;23.62;55.50;100113.00;4996600;28;20264;-84
2023/06/22 00:21:27;;;;;;;12.98;6.97;;;;;;;23.69;55.02;100114.41;4995801;28;20030;-84
2023/06/22 00:23:53;;;;;;;10.88;6.28;;;;;;;23.72;55.23;100108.16;4995483;28;20026;-85
2023/06/22 00:26:19;;;;;;;10.90;6.20;;;;;;;23.73;55.27;100112.56;4995855;28;20039;-85
2023/06/22 00:28:44;;;;;;;13.57;6.93;;;;;;;23.71;55.51;100117.66;4995874;28;20271;-84
2023/06/22 00:31:10;;;;;;;11.68;6.13;;;;;;;23.76;55.16;100115.47;4997601;28;20066;-84
2023/06/22 00:33:35;;;;;;;9.93;5.70;;;;;;;23.67;55.46;100115.59;4996267;28;20053;-83
2023/06/22 00:36:02;;;;;;;10.87;6.67;;;;;;;23.64;55.70;100112.66;4996154;28;20069;-83
2023/06/22 00:38:28;;;;;;;10.32;5.55;;;;;;;23.58;55.90;100114.88;4994081;28;20122;-84
2023/06/22 00:40:53;;;;;;;10.80;6.40;;;;;;;23.49;56.23;100108.59;4995848;28;20026;-84
2023/06/22 00:43:18;;;;;;;10.43;5.87;;;;;;;23.51;56.28;100115.41;4998074;28;20019;-84
2023/06/22 00:45:43;;;;;;;9.70;6.77;;;;;;;23.50;56.28;100113.00;4995566;28;20260;-84
2023/06/22 00:48:09;;;;;;;13.13;8.00;;;;;;;23.43;56.48;100108.78;4995621;28;20369;-85
2023/06/22 00:50:35;;;;;;;12.95;7.90;;;;;;;23.44;56.30;100104.88;4996364;28;20102;-85
2023/06/22 00:53:09;;;;;;;10.20;6.32;;;;;;;23.30;56.71;100099.59;4993407;28;20026;-85
2023/06/22 00:55:46;;;;;;;12.68;6.38;;;;;;;23.29;56.42;100108.31;4996309;28;20030;-85
2023/06/22 00:58:12;;;;;;;9.85;5.80;;;;;;;23.25;57.45;100110.13;4996077;28;20041;-86
2023/06/22 01:00:39;;;;;;;9.13;6.00;;;;;;;23.33;57.40;100114.78;4998394;28;20030;-86
2023/06/22 01:03:08;;;;;;;14.20;6.18;;;;;;;23.25;57.41;100105.38;4996023;28;20030;-85
2023/06/22 01:05:34;;;;;;;9.75;7.00;;;;;;;23.18;57.80;100108.72;4996567;28;20303;-85
2023/06/22 01:08:46;;;;;;;9.18;6.00;;;;;;;23.14;57.97;100101.41;4996148;28;20026;-84
2023/06/22 01:11:21;;;;;;;12.55;7.28;;;;;;;23.10;58.22;100101.28;4990548;28;20122;-85
2023/06/22 01:13:46;;;;;;;11.20;7.50;;;;;;;23.13;58.22;100097.81;4995570;28;20045;-84
2023/06/22 01:16:18;;;;;;;11.43;6.97;;;;;;;23.15;58.07;100097.47;4995755;28;20026;-85
2023/06/22 01:18:44;;;;;;;10.43;6.30;;;;;;;23.19;58.06;100104.78;4995649;28;20389;-85
2023/06/22 01:21:14;;;;;;;9.45;6.95;;;;;;;23.18;58.25;100100.38;4994653;28;20388;-84
2023/06/22 01:24:08;;;;;;;11.23;7.10;;;;;;;23.10;58.08;100084.59;4993523;28;20030;-84
2023/06/22 01:26:41;;;;;;;12.13;6.40;;;;;;;23.09;58.38;100088.53;4990774;28;20050;-84
2023/06/22 01:29:08;;;;;;;10.90;6.68;;;;;;;23.14;58.22;100091.09;4993497;28;20088;-84
2023/06/22 01:31:35;;;;;;;11.15;7.00;;;;;;;23.18;58.21;100091.22;4993708;28;20113;-84
2023/06/22 01:34:03;;;;;;;13.93;8.10;;;;;;;23.06;58.57;100086.44;4993810;28;20030;-84
2023/06/22 01:36:30;;;;;;;12.75;8.95;;;;;;;23.16;58.33;100093.53;4991625;28;20030;-84
2023/06/22 01:38:57;;;;;;;11.35;7.05;;;;;;;23.19;58.10;100085.31;4994760;28;20062;-81
2023/06/22 01:41:25;;;;;;;10.90;6.97;;;;;;;23.13;58.18;100083.91;4993409;28;20065;-82
2023/06/22 01:43:52;;;;;;;10.35;6.30;;;;;;;23.16;58.22;100083.25;4994330;28;20391;-82
2023/06/22 01:46:19;;;;;;;10.80;7.50;;;;;;;23.04;58.65;100083.19;4993454;28;20030;-83
2023/06/22 01:48:45;;;;;;;13.98;7.43;;;;;;;23.02;58.88;100082.72;4991690;28;20385;-81
2023/06/22 01:51:10;;;;;;;13.52;7.60;;;;;;;23.09;58.76;100077.41;4993297;28;20061;-81
2023/06/22 01:53:36;;;;;;;14.93;9.18;;;;;;;23.12;58.74;100075.91;4995266;28;20027;-82
2023/06/22 01:56:01;;;;;;;10.30;7.73;;;;;;;23.07;58.92;100082.50;4992915;28;20041;-83
2023/06/22 01:58:28;;;;;;;11.97;8.37;;;;;;;23.04;59.09;100080.41;4992529;28;20326;-82
2023/06/22 02:01:05;;;;;;;12.00;9.38;;;;;;;23.02;59.18;100079.94;4992567;28;20244;-82
2023/06/22 02:03:36;;;;;;;10.40;6.63;;;;;;;23.00;59.42;100073.91;4988171;28;20030;-81
2023/06/22 02:06:06;;;;;;;17.70;7.57;;;;;;;23.01;59.19;100081.09;4986027;28;20484;-74
2023/06/22 02:08:37;;;;;;;15.15;7.70;;;;;;;22.96;59.42;100074.59;4990089;28;20060;-73
2023/06/22 02:11:03;;;;;;;10.25;8.07;;;;;;;22.97;59.22;100079.00;4990884;28;20084;-74
2023/06/22 02:13:30;;;;;;;17.00;7.20;;;;;;;23.03;59.25;100079.59;4991820;28;20033;-73
2023/06/22 02:15:56;;;;;;;12.48;8.70;;;;;;;23.01;59.27;100075.53;4994396;28;20035;-83
2023/06/22 02:18:21;;;;;;;16.42;8.40;;;;;;;22.98;59.38;100072.28;4994747;28;20031;-83
2023/06/22 02:20:46;;;;;;;12.87;8.40;;;;;;;22.95;59.35;100077.72;4994924;28;20065;-82
2023/06/22 02:23:12;;;;;;;11.57;8.38;;;;;;;22.86;59.88;100081.38;4994383;28;20027;-83
2023/06/22 02:25:37;;;;;;;12.97;7.40;;;;;;;22.89;59.99;100071.56;4994227;28;20049;-83
2023/06/22 02:28:03;;;;;;;14.73;8.90;;;;;;;22.94;59.23;100076.88;4996530;28;20321;-83
2023/06/22 02:30:28;;;;;;;10.13;7.07;;;;;;;22.85;59.89;100078.94;4994106;28;20552;-82
2023/06/22 02:32:58;;;;;;;10.85;6.65;;;;;;;22.79;60.14;100071.97;4994053;28;20026;-83
2023/06/22 02:35:31;;;;;;;13.07;6.75;;;;;;;22.78;60.17;100073.94;4993995;28;20036;-82
2023/06/22 02:37:57;;;;;;;12.43;7.05;;;;;;;22.67;60.88;100061.63;4997940;28;20026;-81
2023/06/22 02:40:22;;;;;;;9.70;6.90;;;;;;;22.65;61.05;100061.13;4994414;28;20034;-83
2023/06/22 02:42:47;;;;;;;14.73;7.97;;;;;;;22.67;61.07;100056.88;4994099;28;20081;-82
2023/06/22 02:45:13;;;;;;;11.00;6.73;;;;;;;22.65;61.06;100059.19;4993925;28;20722;-82
2023/06/22 02:47:38;;;;;;;9.02;6.43;;;;;;;22.65;60.99;100061.97;4994023;28;20322;-82
2023/06/22 02:50:03;;;;;;;9.98;6.90;;;;;;;22.58;61.78;100059.69;4991165;28;20046;-82
2023/06/22 02:52:29;;;;;;;10.15;5.72;;;;;;;22.56;61.41;100062.00;4993801;28;20129;-83
2023/06/22 02:54:54;;;;;;;12.43;8.63;;;;;;;22.51;61.68;100057.50;4993893;28;20030;-82
2023/06/22 02:57:19;;;;;;;12.60;8.50;;;;;;;22.55;61.58;100062.34;4994181;28;20468;-83
2023/06/22 02:59:44;;;;;;;9.83;6.53;;;;;;;22.54;61.25;100055.97;4992942;28;20264;-83
2023/06/22 03:02:11;;;;;;;11.73;6.30;;;;;;;22.51;61.74;100054.72;4993923;28;20712;-82
2023/06/22 03:04:36;;;;;;;10.82;7.63;;;;;;;22.47;61.95;100064.06;5004260;28;20263;-82
2023/06/22 03:07:01;;;;;;;19.90;7.77;;;;;;;22.48;62.05;100054.56;4994072;28;20059;-83
2023/06/22 03:09:28;;;;;;;14.43;8.90;;;;;;;22.54;61.88;100046.84;4993702;28;20023;-83
2023/06/22 03:11:54;;;;;;;15.65;8.55;;;;;;;22.53;61.96;100039.66;4993805;28;20037;-83
2023/06/22 03:14:19;;;;;;;10.27;7.55;;;;;;;22.55;61.78;100043.72;4989987;28;20026;-73
2023/06/22 03:16:45;;;;;;;10.35;7.20;;;;;;;22.54;61.82;100041.28;4990734;28;20053;-73
2023/06/22 03:19:10;;;;;;;12.53;7.40;;;;;;;22.56;62.13;100038.97;4983942;28;20037;-73
2023/06/22 03:21:38;;;;;;;12.25;8.23;;;;;;;22.60;61.36;100026.03;4989264;28;20252;-73
2023/06/22 03:24:04;;;;;;;13.85;8.25;;;;;;;22.60;61.56;100034.34;4990963;28;20026;-83
2023/06/22 03:26:29;;;;;;;11.77;7.57;;;;;;;22.59;61.68;100027.19;4994001;28;20089;-84
2023/06/22 03:28:55;;;;;;;17.85;8.60;;;;;;;22.67;61.33;100039.41;4993565;28;20038;-83
2023/06/22 03:31:21;;;;;;;11.05;6.97;;;;;;;22.61;61.81;100041.53;4993632;28;20027;-83
2023/06/22 03:33:48;;;;;;;13.10;10.43;;;;;;;22.60;61.75;100037.13;4993594;28;20158;-83
2023/06/22 03:36:16;;;;;;;11.63;8.48;;;;;;;22.57;61.91;100035.88;4995050;28;20049;-83
2023/06/22 03:38:41;;;;;;;12.10;8.75;;;;;;;22.55;62.24;100026.25;4993507;28;20023;-83
2023/06/22 03:41:06;;;;;;;10.55;7.00;;;;;;;22.58;62.22;100028.31;4993384;28;20463;-82
2023/06/22 03:43:32;;;;;;;15.77;9.90;;;;;;;22.66;61.14;100027.47;4993095;28;20026;-82
2023/06/22 03:45:57;;;;;;;15.50;8.38;;;;;;;22.60;61.51;100024.06;4993036;28;20260;-83
2023/06/22 03:48:22;;;;;;;11.43;7.63;;;;;;;22.61;61.59;100030.44;4992918;28;20093;-82
2023/06/22 03:50:47;;;;;;;12.07;9.00;;;;;;;22.68;61.41;100036.28;4993430;28;20033;-82
2023/06/22 03:53:13;;;;;;;14.03;8.47;;;;;;;22.67;61.51;100020.78;4992275;28;20019;-83
2023/06/22 03:55:47;;;;;;;10.97;8.10;;;;;;;22.68;61.60;100014.03;4992186;28;20026;-82
2023/06/22 03:58:12;;;;;;;12.77;8.35;;;;;;;22.71;61.96;100012.56;4992617;28;20169;-83
2023/06/22 04:00:38;;;;;;;14.73;9.53;;;;;;;22.59;62.43;100007.75;4996493;28;20488;-83
2023/06/22 04:03:03;;;;;;;13.83;9.23;;;;;;;22.59;62.66;100013.31;4995877;28;20264;-82
2023/06/22 04:05:29;;;;;;;12.18;7.80;;;;;;;22.57;62.74;100012.81;5007133;28;21331;-82
2023/06/22 04:07:54;;;;;;;8.75;7.60;;;;;;;22.64;62.92;100001.97;4996563;28;21221;-83
2023/06/22 04:10:19;;;;;;;13.27;7.93;;;;;;;22.66;62.81;100005.25;4996470;28;20045;-83
2023/06/22 04:12:44;;;;;;;14.02;8.00;;;;;;;22.72;62.69;100003.88;4996920;28;20080;-82
2023/06/22 04:15:11;;;;;;;10.20;7.07;;;;;;;22.68;62.73;100008.50;4996956;28;20026;-82
2023/06/22 04:17:36;;;;;;;12.50;8.07;;;;;;;22.66;63.06;100010.00;4996445;28;20021;-82
2023/06/22 04:20:03;;;;;;;14.90;8.63;;;;;;;22.76;62.80;100011.53;4995785;28;20038;-82
2023/06/22 04:22:29;;;;;;;12.13;7.97;;;;;;;22.68;62.77;100014.03;4996382;28;20495;-83
2023/06/22 04:24:54;;;;;;;16.30;8.23;;;;;;;22.90;62.06;100025.94;4995208;28;20069;-73
2023/06/22 04:27:19;;;;;;;15.13;9.60;;;;;;;22.88;62.37;100019.91;4993631;28;20468;-73
2023/06/22 04:29:48;;;;;;;13.57;9.00;;;;;;;22.79;62.88;100021.97;4992474;28;20045;-74
2023/06/22 04:32:15;;;;;;;20.02;9.10;;;;;;;22.60;63.11;100012.13;4992792;28;20030;-74
2023/06/22 04:34:40;;;;;;;11.65;8.52;;;;;;;22.67;63.32;100015.22;4993117;28;21084;-74
2023/06/22 04:37:05;;;;;;;15.07;8.97;;;;;;;22.69;63.07;100015.69;4993050;28;20052;-73
2023/06/22 04:39:31;;;;;;;12.47;8.37;;;;;;;22.61;63.41;100020.16;4992836;28;20252;-74
2023/06/22 04:42:00;;;;;;;12.02;8.45;;;;;;;22.59;63.72;100016.06;4992446;28;20037;-73
2023/06/22 04:44:25;;;;;;;13.35;7.45;;;;;;;22.63;63.28;100014.25;4992732;28;20026;-74
2023/06/22 04:46:59;;;;;;;13.77;8.52;;;;;;;22.74;62.96;100018.25;4994645;28;20391;-74
2023/06/22 04:49:32;;;;;;;12.45;7.53;;;;;;;22.66;63.42;100010.78;4991382;28;20495;-73
2023/06/22 04:52:08;;;;;;;18.30;9.80;;;;;;;22.59;63.42;100004.97;4992093;28;20048;-74
2023/06/22 04:54:35;;;;;;;14.65;7.93;;;;;;;22.61;62.87;100013.78;4991096;28;20109;-74
2023/06/22 04:57:01;;;;;;;12.43;7.57;;;;;;;22.55;62.90;100026.25;4993319;28;20033;-73
2023/06/22 04:59:29;;;;;;;11.40;7.63;;;;;;;22.64;62.39;100018.63;4992322;28;20026;-75
2023/06/22 05:01:55;;;;;;;11.23;7.30;;;;;;;22.67;62.25;100018.00;4991739;28;20030;-73
2023/06/22 05:04:25;;;;;;;12.88;8.48;;;;;;;22.68;62.34;100025.16;4992119;28;20097;-73
2023/06/22 05:06:51;;;;;;;12.57;8.88;;;;;;;22.77;61.45;100024.28;4991748;28;20054;-74
2023/06/22 05:09:17;;;;;;;16.75;8.90;;;;;;;22.89;61.09;100035.44;4991539;28;20046;-74
2023/06/22 05:11:43;;;;;;;13.15;9.70;;;;;;;22.95;60.55;100022.13;4991838;28;20040;-74
2023/06/22 05:14:08;;;;;;;9.68;7.25;;;;;;;22.93;61.13;100025.25;4991592;28;20112;-73
2023/06/22 05:16:33;;;;;;;14.55;8.93;;;;;;;22.94;61.37;100026.06;4992510;28;20030;-73
2023/06/22 05:18:58;;;;;;;11.70;8.02;;;;;;;22.94;61.33;100015.75;4991891;28;20468;-74
2023/06/22 05:21:26;;;;;;;12.80;8.50;;;;;;;22.89;61.71;100013.19;4992145;28;20022;-73
2023/06/22 05:23:52;;;;;;;15.20;8.50;;;;;;;22.83;62.25;100012.59;4992017;28;20037;-73
2023/06/22 05:26:19;;;;;;;9.98;6.63;;;;;;;22.83;62.06;100025.69;4992144;28;20451;-74
2023/06/22 05:28:45;;;;;;;12.43;7.15;;;;;;;22.89;61.72;100017.94;4991533;28;20030;-74
2023/06/22 05:31:14;;;;;;;12.00;7.55;;;;;;;22.94;61.67;100032.41;4991729;28;20034;-74
2023/06/22 05:33:44;;;;;;;12.05;6.80;;;;;;;22.83;62.18;100034.03;4991693;28;20022;-73
2023/06/22 05:36:10;;;;;;;10.43;7.28;;;;;;;22.86;61.78;100025.00;4989622;28;20030;-73
2023/06/22 05:38:36;;;;;;;13.38;7.90;;;;;;;22.82;61.82;100024.84;4991456;28;20030;-74
2023/06/22 05:41:01;;;;;;;10.27;6.68;;;;;;;22.90;61.71;100025.13;4990324;28;20038;-73
2023/06/22 05:43:26;;;;;;;11.10;7.80;;;;;;;22.91;61.88;100022.00;4992423;28;20026;-74
2023/06/22 05:45:51;;;;;;;11.07;6.53;;;;;;;22.91;61.85;100022.00;4994437;28;20049;-83
2023/06/22 05:48:17;;;;;;;11.37;6.90;;;;;;;22.93;61.45;100019.69;4995299;28;20472;-82
2023/06/22 05:50:42;;;;;;;9.65;6.50;;;;;;;22.92;61.47;100018.09;4993303;28;20048;-83
2023/06/22 05:53:07;;;;;;;12.25;6.80;;;;;;;23.02;61.62;100021.56;4995273;28;20068;-82
2023/06/22 05:55:33;;;;;;;11.20;7.35;;;;;;;22.97;61.54;100028.16;4995179;28;20030;-84
2023/06/22 05:57:58;;;;;;;12.38;6.43;;;;;;;22.92;61.42;100029.19;4998940;28;20038;-83
2023/06/22 06:00:24;;;;;;;11.55;7.30;;;;;;;23.01;61.47;100031.06;4995711;28;20114;-84
2023/06/22 06:02:49;;;;;;;9.73;6.50;;;;;;;22.98;61.23;100033.34;4994764;28;20042;-84
2023/06/22 06:05:15;;;;;;;10.73;7.18;;;;;;;23.20;60.42;100024.97;4994575;28;20060;-85
2023/06/22 06:07:45;;;;;;;11.38;7.07;;;;;;;23.15;61.25;100030.72;4993710;28;20018;-84
2023/06/22 06:10:10;;;;;;;12.63;6.80;;;;;;;23.18;61.09;100027.28;4992964;28;20031;-83
2023/06/22 06:12:36;;;;;;;12.20;6.53;;;;;;;23.26;61.00;100028.31;4994337;28;20029;-85
2023/06/22 06:15:02;;;;;;;11.97;7.53;;;;;;;23.29;60.76;100020.09;4994437;28;20625;-84
2023/06/22 06:17:27;;;;;;;10.30;7.70;;;;;;;23.35;60.56;100022.66;4994430;28;20025;-82
2023/06/22 06:19:52;;;;;;;11.82;6.93;;;;;;;23.35;60.28;100023.47;4993025;28;20125;-85
2023/06/22 06:22:18;;;;;;;13.27;7.75;;;;;;;23.46;60.46;100011.91;4993056;28;20117;-84
2023/06/22 06:24:44;;;;;;;11.02;7.38;;;;;;;23.54;60.20;100009.03;4994041;28;20029;-83
2023/06/22 06:27:09;;;;;;;11.63;6.65;;;;;;;23.59;60.18;100013.56;4993840;28;20026;-83
2023/06/22 06:29:34;;;;;;;10.50;7.10;;;;;;;23.56;60.45;100011.47;4994049;28;20026;-84
2023/06/22 06:32:00;;;;;;;9.97;6.23;;;;;;;23.58;60.60;100014.72;4988059;28;20298;-84
2023/06/22 06:34:25;;;;;;;13.07;7.60;;;;;;;23.44;61.22;100010.31;4987318;28;20042;-82
2023/06/22 06:36:50;;;;;;;11.90;8.30;;;;;;;23.58;60.23;100009.13;4985126;28;20362;-85
2023/06/22 06:39:16;;;;;;;12.97;9.07;;;;;;;23.48;61.34;100015.97;4985092;28;20053;-86
2023/06/22 06:41:41;;;;;;;11.98;8.27;;;;;;;23.54;60.91;100013.78;4985227;28;20093;-86
2023/06/22 06:44:07;;;;;;;12.35;7.93;;;;;;;23.52;61.17;100019.69;4984976;28;20315;-79
2023/06/22 06:46:32;;;;;;;15.23;9.27;;;;;;;23.66;60.18;100019.34;4983599;28;20124;-77
2023/06/22 06:48:57;;;;;;;11.73;7.73;;;;;;;23.63;60.80;100022.00;4982715;28;21057;-74
2023/06/22 06:51:22;;;;;;;17.20;9.05;;;;;;;23.66;60.29;100015.75;4982356;28;20053;-72
2023/06/22 06:53:48;;;;;;;16.15;8.73;;;;;;;23.69;60.34;100005.91;4983544;28;20073;-73
2023/06/22 06:56:13;;;;;;;13.83;8.03;;;;;;;23.65;60.80;100008.56;4983668;28;20057;-74
2023/06/22 06:58:45;;;;;;;15.07;9.90;;;;;;;23.52;61.44;100002.19;4983175;28;20629;-74
2023/06/22 07:01:11;;;;;;;18.75;10.00;;;;;;;23.50;61.61;100012.84;4982182;28;20268;-71
2023/06/22 07:03:37;;;;;;;14.75;10.55;;;;;;;23.49;61.71;100011.25;4982207;28;20120;-75
2023/06/22 07:06:02;;;;;;;18.47;10.77;;;;;;;23.46;62.10;100006.34;4981164;28;20072;-74
2023/06/22 07:08:27;;;;;;;16.40;10.52;;;;;;;23.58;61.34;100009.13;4982010;28;20559;-74
2023/06/22 07:10:52;;;;;;;16.50;9.83;;;;;;;23.61;61.78;100008.47;4981755;28;20666;-75
2023/06/22 07:13:18;;;;;;;14.17;9.40;;;;;;;23.58;61.91;100009.13;4981335;28;20085;-75
2023/06/22 07:15:43;;;;;;;16.87;10.87;;;;;;;23.66;61.39;100010.19;4981525;28;20129;-73
2023/06/22 07:18:08;;;;;;;31.13;10.60;;;;;;;23.68;61.33;100007.84;4982043;28;20798;-74
2023/06/22 07:20:34;;;;;;;14.15;10.20;;;;;;;23.62;62.00;100003.69;4984778;28;20256;-73
2023/06/22 07:22:59;;;;;;;16.23;9.70;;;;;;;23.53;62.99;100010.19;4983323;28;20046;-73
2023/06/22 07:25:25;;;;;;;14.30;9.53;;;;;;;23.55;63.38;100005.06;4982400;28;20118;-73
2023/06/22 07:28:02;;;;;;;12.85;9.40;;;;;;;23.61;64.17;100016.00;4982813;28;20272;-73
2023/06/22 07:30:28;;;;;;;14.00;9.70;;;;;;;23.59;64.88;100013.56;4982911;28;20066;-72
2023/06/22 07:32:53;;;;;;;21.58;12.68;;;;;;;23.55;65.42;99998.72;4982667;28;20149;-73
2023/06/22 07:35:18;;;;;;;18.17;11.55;;;;;;;23.46;66.98;99990.47;4986104;28;20053;-74
2023/06/22 07:37:44;;;;;;;19.30;10.52;;;;;;;23.46;67.85;99986.88;4985516;28;20085;-73
2023/06/22 07:40:10;;;;;;;22.20;11.82;;;;;;;23.49;68.08;99980.63;4984758;28;20169;-72
2023/06/22 07:42:35;;;;;;;18.50;10.07;;;;;;;23.46;68.71;99981.31;4985441;28;20045;-72
2023/06/22 07:45:03;;;;;;;16.40;10.98;;;;;;;23.46;69.07;99989.66;4979977;28;20125;-72
2023/06/22 07:47:28;;;;;;;15.02;11.10;;;;;;;23.40;69.91;99975.16;4984241;28;20137;-72
2023/06/22 07:49:55;;;;;;;19.10;10.77;;;;;;;23.43;71.00;99974.47;4984419;28;20034;-71
2023/06/22 07:52:21;;;;;;;18.90;12.10;;;;;;;23.53;70.69;99962.09;4985389;28;20176;-74
2023/06/22 07:54:46;;;;;;;21.40;13.73;;;;;;;23.54;70.34;99975.66;4983094;28;20034;-73
2023/06/22 07:57:11;;;;;;;18.02;13.98;;;;;;;23.51;70.89;99972.75;4985167;28;20041;-74
2023/06/22 07:59:37;;;;;;;18.98;12.00;;;;;;;23.45;71.82;99966.63;4984764;28;20456;-73
2023/06/22 08:02:03;;;;;;;16.65;10.98;;;;;;;23.45;72.12;99963.84;4983705;28;20404;-73
2023/06/22 08:04:28;;;;;;;18.15;10.65;;;;;;;23.35;72.45;99956.72;4987237;28;20035;-84
2023/06/22 08:06:54;;;;;;;18.10;11.43;;;;;;;23.23;73.05;99953.97;4993176;28;20034;-82
2023/06/22 08:09:19;;;;;;;18.15;13.27;;;;;;;23.24;72.82;99955.56;4990017;28;20034;-79
2023/06/22 08:11:44;;;;;;;17.17;10.87;;;;;;;23.11;73.32;99947.22;4981159;28;20214;-78
2023/06/22 08:14:10;;;;;;;24.77;11.88;;;;;;;23.21;73.47;99945.94;4990434;28;21266;-81
2023/06/22 08:16:35;;;;;;;17.40;12.40;;;;;;;23.51;72.60;99951.28;4990739;28;20376;-80
2023/06/22 08:19:00;;;;;;;20.17;12.80;;;;;;;23.50;73.07;99951.66;4987035;28;20088;-80
2023/06/22 08:21:25;;;;;;;19.67;12.67;;;;;;;23.40;73.87;99964.84;4985659;28;20634;-80
2023/06/22 08:23:51;;;;;;;21.23;14.47;;;;;;;23.45;73.12;99949.94;4984947;28;20343;-80
2023/06/22 08:26:16;;;;;;;18.53;12.93;;;;;;;23.43;72.96;99953.00;4984777;28;20034;-80
2023/06/22 08:28:41;;;;;;;16.67;12.60;;;;;;;23.47;72.70;99941.22;4984405;28;20340;-80
2023/06/22 08:31:07;;;;;;;18.80;12.00;;;;;;;23.59;73.20;99921.75;4984603;28;20264;-79
2023/06/22 08:33:32;;;;;;;19.77;12.93;;;;;;;23.67;73.17;99926.38;4984612;28;20291;-80
2023/06/22 08:35:59;;;;;;;17.33;10.88;;;;;;;23.72;72.84;99916.13;4984383;28;20030;-80
2023/06/22 08:38:24;;;;;;;17.58;13.52;;;;;;;23.84;72.92;99921.69;4985315;28;20069;-80
2023/06/22 08:40:50;;;;;;;22.52;14.48;;;;;;;24.03;71.71;99917.44;4986185;28;20037;-80
2023/06/22 08:43:15;;;;;;;16.67;11.45;;;;;;;24.13;71.17;99922.53;4986232;28;20026;-80
2023/06/22 08:45:40;;;;;;;19.10;12.27;;;;;;;24.02;72.43;99913.84;4985744;28;20105;-80
2023/06/22 08:48:05;;;;;;;16.83;12.37;;;;;;;23.98;73.50;99914.94;4985544;28;20861;-79
2023/06/22 08:50:31;;;;;;;20.53;14.40;;;;;;;23.92;73.40;99910.78;4985853;28;20057;-80
2023/06/22 08:52:56;;;;;;;19.40;13.48;;;;;;;24.06;73.39;99910.38;4985835;28;20051;-80
2023/06/22 08:55:21;;;;;;;17.77;14.37;;;;;;;24.10;72.66;99900.94;4986087;28;20039;-80
2023/06/22 08:57:46;;;;;;;16.40;11.40;;;;;;;24.07;73.30;99901.66;4985779;28;20812;-80
2023/06/22 09:00:17;;;;;;;20.50;12.83;;;;;;;24.22;73.15;99907.66;4984881;28;20038;-80
2023/06/22 09:02:43;;;;;;;17.88;12.27;;;;;;;24.41;72.23;99889.50;4985612;28;20042;-80
2023/06/22 09:05:09;;;;;;;14.80;11.23;;;;;;;24.71;72.31;99901.00;4985390;28;20085;-81
2023/06/22 09:07:34;;;;;;;16.23;11.13;;;;;;;24.97;70.33;99890.53;4985642;28;20491;-80
2023/06/22 09:09:59;;;;;;;16.10;11.07;;;;;;;25.04;69.42;99896.28;4984892;28;20049;-80
2023/06/22 09:12:27;;;;;;;14.90;9.27;;;;;;;25.14;69.07;99888.53;4985672;28;20292;-80
2023/06/22 09:14:52;;;;;;;18.20;10.45;;;;;;;25.12;69.31;99890.88;4985506;28;20034;-73
2023/06/22 09:17:17;;;;;;;21.75;11.32;;;;;;;25.09;69.27;99886.00;4985064;28;20112;-73
2023/06/22 09:19:42;;;;;;;15.23;9.85;;;;;;;25.22;69.22;99872.78;4984638;28;20058;-73
2023/06/22 09:22:08;;;;;;;11.63;8.70;;;;;;;25.41;67.42;99863.63;4984488;28;20129;-73
2023/06/22 09:24:33;;;;;;;13.53;8.27;;;;;;;25.45;67.16;99867.31;4984771;28;20030;-73
2023/06/22 09:26:58;;;;;;;12.37;8.53;;;;;;;25.60;65.91;99871.25;4984912;28;20467;-74
2023/06/22 09:29:24;;;;;;;13.27;9.32;;;;;;;25.81;65.54;99872.88;4984266;28;20129;-74
2023/06/22 09:31:49;;;;;;;13.73;8.85;;;;;;;25.79;64.52;99860.47;4984351;28;20042;-72
2023/06/22 09:34:20;;;;;;;12.27;8.67;;;;;;;25.90;64.06;99855.91;4984578;28;20065;-73
2023/06/22 09:36:45;;;;;;;13.25;8.98;;;;;;;26.03;63.47;99853.78;4984485;28;20514;-73
2023/06/22 09:39:10;;;;;;;14.30;10.02;;;;;;;26.04;62.81;99843.41;4984282;28;20316;-72
2023/06/22 09:41:35;;;;;;;13.57;8.83;;;;;;;26.18;61.99;99832.50;4984633;28;20151;-72
2023/06/22 09:44:01;;;;;;;13.33;8.33;;;;;;;26.18;61.71;99838.09;4984646;28;20263;-73
2023/06/22 09:46:26;;;;;;;15.87;7.10;;;;;;;26.17;62.94;99836.50;4984488;28;20476;-73
2023/06/22 09:48:51;;;;;;;18.00;7.90;;;;;;;26.32;62.01;99837.56;4983840;28;20096;-73
2023/06/22 09:51:16;;;;;;;11.80;8.40;;;;;;;26.39;61.09;99842.50;4984066;28;20061;-73
2023/06/22 09:53:42;;;;;;;15.90;8.63;;;;;;;26.43;60.94;99837.78;4984311;28;20030;-73
2023/06/22 09:56:11;;;;;;;13.50;7.93;;;;;;;26.46;60.98;99842.63;4983897;28;20436;-74
2023/06/22 09:58:36;;;;;;;9.70;7.35;;;;;;;26.46;60.70;99837.03;4983662;28;20276;-73
2023/06/22 10:01:01;;;;;;;12.00;6.50;;;;;;;26.48;60.13;99838.66;4984287;28;20601;-73
2023/06/22 10:03:27;;;;;;;12.67;7.50;;;;;;;26.48;59.63;99833.88;4984576;28;20070;-74
2023/06/22 10:05:52;;;;;;;12.57;6.78;;;;;;;26.58;58.98;99822.06;4984719;28;20430;-73
2023/06/22 10:08:17;;;;;;;12.57;7.28;;;;;;;26.69;58.15;99818.63;4983895;28;20030;-73
2023/06/22 10:10:42;;;;;;;10.33;7.00;;;;;;;26.74;58.82;99809.94;4984383;28;20033;-74
2023/06/22 10:13:10;;;;;;;14.47;8.20;;;;;;;26.77;58.24;99811.97;4983840;28;20240;-73
2023/06/22 10:15:35;;;;;;;9.82;6.38;;;;;;;26.84;57.37;99807.69;4984305;28;20268;-80
2023/06/22 10:18:00;;;;;;;8.57;5.70;;;;;;;26.88;57.71;99814.94;4984130;28;20034;-80
2023/06/22 10:20:26;;;;;;;9.70;6.70;;;;;;;26.91;57.49;99816.97;4984103;28;20741;-80
2023/06/22 10:22:51;;;;;;;12.55;6.65;;;;;;;27.01;56.83;99809.94;4984254;28;20042;-81
2023/06/22 10:25:16;;;;;;;11.10;6.40;;;;;;;27.03;56.97;99807.56;4983987;28;20412;-74
2023/06/22 10:27:42;;;;;;;13.17;6.57;;;;;;;27.02;57.66;99800.38;4984225;28;20065;-74
2023/06/22 10:30:09;;;;;;;11.85;6.88;;;;;;;27.02;57.79;99794.78;4983670;28;20260;-74
2023/06/22 10:32:34;;;;;;;9.23;5.70;;;;;;;27.22;57.66;99796.66;4983496;28;20026;-73
2023/06/22 10:34:59;;;;;;;10.18;7.07;;;;;;;27.24;57.57;99802.69;4983494;28;20041;-73
2023/06/22 10:37:25;;;;;;;12.70;8.07;;;;;;;27.08;57.49;99802.88;4983538;28;20045;-72
2023/06/22 10:39:50;;;;;;;11.03;7.23;;;;;;;27.10;58.29;99804.09;4982980;28;20101;-73
2023/06/22 10:42:15;;;;;;;10.07;6.40;;;;;;;27.13;58.37;99792.16;4983586;28;20042;-73
2023/06/22 10:44:43;;;;;;;12.50;6.23;;;;;;;27.25;58.12;99796.72;4983617;28;20473;-73
2023/06/22 10:47:08;;;;;;;12.00;8.20;;;;;;;27.32;57.87;99779.22;4983209;28;20287;-74
2023/06/22 10:49:33;;;;;;;10.15;6.63;;;;;;;27.22;58.44;99788.28;4982973;28;20128;-73
2023/06/22 10:51:59;;;;;;;13.57;7.93;;;;;;;27.18;58.93;99781.81;4983018;28;20141;-73
2023/06/22 10:54:24;;;;;;;11.73;7.37;;;;;;;26.97;59.22;99789.50;4983457;28;20260;-73
2023/06/22 10:56:49;;;;;;;14.07;7.83;;;;;;;26.94;59.56;99793.06;4982839;28;20467;-73
2023/06/22 10:59:14;;;;;;;10.30;7.63;;;;;;;26.77;59.63;99802.78;4982886;28;20054;-73
2023/06/22 11:01:40;;;;;;;11.83;7.23;;;;;;;26.50;60.95;99813.94;4983773;28;20462;-73
2023/06/22 11:04:05;;;;;;;15.73;7.67;;;;;;;26.33;62.10;99829.97;4982834;28;20280;-73
2023/06/22 11:06:30;;;;;;;9.83;7.00;;;;;;;26.18;61.91;99838.09;4983442;28;20045;-73
2023/06/22 11:08:55;;;;;;;11.47;7.40;;;;;;;26.09;62.53;99843.13;4985300;28;20147;-73
2023/06/22 11:11:21;;;;;;;12.15;8.68;;;;;;;26.12;62.58;99853.53;4987035;28;20018;-73
2023/06/22 11:13:46;;;;;;;12.03;7.97;;;;;;;26.02;63.84;99849.38;4987082;28;20042;-74
2023/06/22 11:16:11;;;;;;;9.87;7.50;;;;;;;25.88;64.22;99853.50;4987199;28;20972;-73